createdAt,value
2022-08-19T00:01:32.601Z,19.06
2022-08-19T00:04:08.055Z,19.05
2022-08-19T00:06:38.805Z,19.13
2022-08-19T00:09:08.946Z,19.13
2022-08-19T00:11:38.597Z,18.98
2022-08-19T00:14:08.610Z,19.01
2022-08-19T00:16:36.683Z,19.00
2022-08-19T00:19:05.253Z,19.04
2022-08-19T00:21:35.890Z,19.03
2022-08-19T00:24:06.418Z,19.03
2022-08-19T00:26:35.100Z,19.28
2022-08-19T00:29:03.167Z,19.00
2022-08-19T00:31:32.199Z,19.11
2022-08-19T00:34:00.717Z,19.14
2022-08-19T00:36:29.575Z,19.24
2022-08-19T00:38:59.511Z,19.23
2022-08-19T00:41:29.684Z,19.24
2022-08-19T00:44:03.488Z,19.11
2022-08-19T00:46:32.688Z,19.28
2022-08-19T00:49:01.797Z,19.13
2022-08-19T00:51:33.699Z,19.31
2022-08-19T00:54:03.757Z,19.35
2022-08-19T00:56:33.651Z,19.37
2022-08-19T00:59:02.905Z,19.42
2022-08-19T01:01:30.993Z,19.43
2022-08-19T01:03:59.432Z,19.36
2022-08-19T01:06:27.940Z,19.48
2022-08-19T01:08:57.003Z,19.34
2022-08-19T01:11:25.084Z,19.47
2022-08-19T01:13:56.217Z,19.36
2022-08-19T01:16:27.464Z,19.50
2022-08-19T01:18:55.768Z,19.38
2022-08-19T01:21:30.112Z,19.52
2022-08-19T01:23:59.636Z,19.58
2022-08-19T01:26:29.046Z,19.57
2022-08-19T01:29:02.569Z,19.39
2022-08-19T01:31:33.549Z,19.61
2022-08-19T01:34:03.095Z,19.56
2022-08-19T01:36:36.821Z,19.64
2022-08-19T01:39:08.894Z,19.67
2022-08-19T01:41:37.203Z,19.66
2022-08-19T01:44:17.395Z,19.71
2022-08-19T01:46:49.433Z,19.67
2022-08-19T01:49:20.036Z,19.68
2022-08-19T01:51:48.692Z,19.68
2022-08-19T01:54:23.118Z,19.79
2022-08-19T01:57:00.136Z,19.66
2022-08-19T01:59:28.490Z,19.66
2022-08-19T02:01:56.496Z,19.76
2022-08-19T02:04:26.654Z,19.86
2022-08-19T02:06:54.670Z,19.87
2022-08-19T02:09:24.079Z,19.85
2022-08-19T02:11:52.232Z,19.88
2022-08-19T02:14:20.398Z,19.81
2022-08-19T02:16:48.814Z,19.85
2022-08-19T02:19:16.922Z,19.90
2022-08-19T02:21:45.659Z,19.90
2022-08-19T02:24:14.310Z,19.79
2022-08-19T02:26:43.737Z,19.91
2022-08-19T02:29:12.010Z,19.89
2022-08-19T02:31:40.104Z,19.94
2022-08-19T02:34:08.076Z,19.96
2022-08-19T02:36:36.426Z,19.88
2022-08-19T02:39:09.764Z,20.01
2022-08-19T02:41:37.902Z,19.97
2022-08-19T02:44:28.663Z,20.00
2022-08-19T02:46:56.524Z,19.86
2022-08-19T02:49:24.676Z,19.97
2022-08-19T02:51:52.627Z,19.80
2022-08-19T02:54:21.069Z,20.01
2022-08-19T02:56:49.291Z,19.79
2022-08-19T02:59:18.605Z,19.96
2022-08-19T03:01:51.045Z,19.76
2022-08-19T03:04:20.272Z,19.81
2022-08-19T03:06:49.445Z,19.94
2022-08-19T03:09:19.203Z,19.92
2022-08-19T03:11:47.331Z,20.03
2022-08-19T03:14:20.310Z,19.77
2022-08-19T03:16:51.788Z,19.90
2022-08-19T03:19:22.318Z,19.90
2022-08-19T03:21:51.126Z,20.08
2022-08-19T03:24:21.191Z,19.90
2022-08-19T03:26:52.440Z,20.06
2022-08-19T03:29:30.364Z,20.08
2022-08-19T03:32:01.708Z,20.08
2022-08-19T03:34:32.064Z,20.02
2022-08-19T03:37:05.534Z,20.08
2022-08-19T03:39:33.687Z,19.96
2022-08-19T03:42:31.899Z,20.22
2022-08-19T03:44:53.571Z,20.36
2022-08-19T03:47:21.689Z,20.29
2022-08-19T03:49:49.734Z,20.33
2022-08-19T03:52:17.641Z,20.31
2022-08-19T03:54:46.017Z,20.25
2022-08-19T03:57:14.506Z,20.26
2022-08-19T03:59:42.756Z,20.35
2022-08-19T04:02:14.285Z,20.31
2022-08-19T04:04:45.123Z,20.27
2022-08-19T04:07:16.971Z,20.30
2022-08-19T04:09:45.731Z,20.30
2022-08-19T04:12:13.976Z,20.13
2022-08-19T04:14:42.649Z,20.30
2022-08-19T04:17:14.091Z,20.25
2022-08-19T04:19:44.066Z,20.04
2022-08-19T04:22:13.058Z,20.13
2022-08-19T04:24:41.250Z,20.58
2022-08-19T04:27:15.963Z,20.66
2022-08-19T04:29:44.251Z,20.65
2022-08-19T04:32:16.710Z,20.65
2022-08-19T04:35:02.195Z,20.56
2022-08-19T04:37:35.705Z,20.49
2022-08-19T04:40:25.580Z,20.23
2022-08-19T04:42:54.741Z,20.63
2022-08-19T04:45:23.308Z,20.34
2022-08-19T04:48:26.877Z,20.70
2022-08-19T04:50:46.784Z,20.71
2022-08-19T04:53:14.957Z,20.49
2022-08-19T04:55:43.984Z,20.61
2022-08-19T04:58:12.068Z,20.63
2022-08-19T05:00:41.982Z,20.67
2022-08-19T05:03:11.684Z,20.45
2022-08-19T05:05:45.144Z,20.56
2022-08-19T05:08:31.253Z,20.42
2022-08-19T05:10:59.800Z,20.71
2022-08-19T05:13:28.528Z,20.69
2022-08-19T05:15:58.647Z,20.80
2022-08-19T05:18:46.846Z,20.75
2022-08-19T05:21:35.682Z,20.82
2022-08-19T05:24:04.228Z,20.74
2022-08-19T05:26:32.318Z,20.85
2022-08-19T05:29:00.737Z,20.97
2022-08-19T05:31:28.764Z,20.89
2022-08-19T05:33:59.602Z,20.71
2022-08-19T05:36:28.113Z,21.18
2022-08-19T05:38:56.909Z,20.95
2022-08-19T05:41:30.455Z,21.07
2022-08-19T05:43:58.981Z,21.22
2022-08-19T05:46:28.149Z,21.20
2022-08-19T05:48:57.569Z,21.28
2022-08-19T05:51:29.231Z,21.19
2022-08-19T05:53:57.782Z,21.18
2022-08-19T05:56:26.175Z,21.29
2022-08-19T05:58:55.279Z,21.30
2022-08-19T06:01:28.294Z,21.38
2022-08-19T06:03:56.610Z,21.37
2022-08-19T06:06:26.022Z,21.30
2022-08-19T06:08:53.993Z,21.38
2022-08-19T06:11:24.399Z,21.29
2022-08-19T06:13:59.746Z,21.23
2022-08-19T06:16:41.780Z,21.16
2022-08-19T06:19:12.810Z,21.51
2022-08-19T06:21:44.477Z,21.25
2022-08-19T06:24:16.158Z,21.59
2022-08-19T06:29:23.831Z,21.86
2022-08-19T06:31:54.907Z,22.12
2022-08-19T06:34:23.083Z,22.51
2022-08-19T06:36:53.671Z,22.74
2022-08-19T06:39:26.308Z,22.88
2022-08-19T06:41:58.903Z,23.07
2022-08-19T06:44:31.813Z,23.22
2022-08-19T06:46:59.884Z,23.23
2022-08-19T06:49:32.607Z,23.38
2022-08-19T06:52:02.597Z,23.60
2022-08-19T06:54:37.797Z,23.74
2022-08-19T06:57:22.208Z,23.42
2022-08-19T06:59:50.431Z,23.89
2022-08-19T07:04:52.650Z,24.02
2022-08-19T07:07:23.252Z,24.09
2022-08-19T07:09:59.974Z,24.21
2022-08-19T07:12:32.378Z,24.38
2022-08-19T07:15:00.646Z,24.59
2022-08-19T07:17:30.108Z,24.62
2022-08-19T07:20:05.437Z,24.79
2022-08-19T07:22:38.934Z,25.14
2022-08-19T07:25:21.895Z,25.33
2022-08-19T07:28:01.574Z,25.11
2022-08-19T07:30:34.201Z,25.16
2022-08-19T07:33:03.446Z,25.42
2022-08-19T07:35:33.161Z,25.66
2022-08-19T07:38:04.989Z,25.60
2022-08-19T07:40:35.314Z,25.75
2022-08-19T07:43:03.266Z,25.86
2022-08-19T07:45:34.605Z,26.04
2022-08-19T07:48:02.716Z,26.13
2022-08-19T07:50:32.585Z,26.47
2022-08-19T07:53:01.999Z,26.59
2022-08-19T07:55:42.026Z,26.66
2022-08-19T07:58:17.563Z,26.73
2022-08-19T08:00:47.363Z,26.91
2022-08-19T08:03:16.673Z,27.06
2022-08-19T08:06:03.501Z,27.20
2022-08-19T08:08:51.479Z,27.31
2022-08-19T08:11:23.998Z,27.59
2022-08-19T08:14:00.963Z,27.61
2022-08-19T08:16:33.341Z,27.71
2022-08-19T08:19:02.959Z,27.80
2022-08-19T08:21:36.751Z,27.91
2022-08-19T08:24:06.553Z,28.00
2022-08-19T08:26:34.980Z,28.28
2022-08-19T08:29:03.224Z,28.05
2022-08-19T08:31:42.549Z,28.07
2022-08-19T08:34:15.410Z,28.19
2022-08-19T08:36:47.119Z,28.28
2022-08-19T08:39:19.353Z,28.31
2022-08-19T08:41:55.271Z,28.42
2022-08-19T08:44:26.056Z,28.74
2022-08-19T08:47:01.350Z,28.91
2022-08-19T08:49:35.746Z,28.72
2022-08-19T08:52:07.407Z,29.10
2022-08-19T08:54:49.159Z,29.26
2022-08-19T08:57:28.923Z,29.33
2022-08-19T09:00:07.252Z,29.44
2022-08-19T09:02:43.586Z,29.69
2022-08-19T09:05:16.667Z,29.43
2022-08-19T09:07:53.183Z,29.56
2022-08-19T09:10:34.069Z,29.99
2022-08-19T09:13:14.344Z,29.90
2022-08-19T09:15:52.069Z,30.47
2022-08-19T09:18:20.920Z,30.64
2022-08-19T09:20:49.770Z,31.05
2022-08-19T09:23:18.273Z,31.29
2022-08-19T09:25:59.363Z,31.44
2022-08-19T09:28:31.084Z,31.58
2022-08-19T09:31:04.323Z,32.17
2022-08-19T09:33:35.829Z,32.31
2022-08-19T09:36:08.600Z,33.17
2022-08-19T09:38:37.845Z,33.92
2022-08-19T09:41:15.716Z,34.36
2022-08-19T09:43:49.044Z,34.73
2022-08-19T09:46:23.891Z,34.82
2022-08-19T09:48:55.554Z,35.40
2022-08-19T09:51:33.063Z,35.52
2022-08-19T09:54:05.190Z,36.77
2022-08-19T09:56:37.349Z,37.78
2022-08-19T09:59:05.766Z,38.37
2022-08-19T10:01:34.919Z,37.52
2022-08-19T10:04:14.580Z,37.24
2022-08-19T10:06:53.758Z,37.71
2022-08-19T10:09:34.319Z,38.12
2022-08-19T10:12:11.139Z,38.58
2022-08-19T10:14:41.527Z,38.69
2022-08-19T10:17:19.843Z,39.12
2022-08-19T10:19:55.777Z,39.89
2022-08-19T10:22:25.674Z,40.94
2022-08-19T10:24:55.309Z,40.67
2022-08-19T10:27:26.355Z,40.34
2022-08-19T10:29:54.963Z,41.56
2022-08-19T10:32:34.387Z,41.69
2022-08-19T10:35:02.854Z,42.02
2022-08-19T10:37:42.319Z,42.17
2022-08-19T10:40:24.766Z,41.26
2022-08-19T10:42:54.486Z,41.04
2022-08-19T10:45:28.132Z,41.24
2022-08-19T10:47:56.825Z,41.62
2022-08-19T10:50:42.054Z,42.04
2022-08-19T10:53:10.912Z,41.72
2022-08-19T10:55:59.783Z,40.73
2022-08-19T10:58:29.380Z,40.95
2022-08-19T11:00:59.599Z,40.45
2022-08-19T11:03:28.774Z,41.08
2022-08-19T11:06:01.641Z,40.23
2022-08-19T11:08:31.669Z,40.10
2022-08-19T11:11:04.324Z,40.21
2022-08-19T11:13:39.953Z,39.46
2022-08-19T11:16:11.290Z,38.83
2022-08-19T11:18:41.335Z,38.55
2022-08-19T11:21:15.414Z,39.36
2022-08-19T11:23:44.293Z,38.70
2022-08-19T11:26:12.599Z,38.67
2022-08-19T11:28:47.677Z,38.74
2022-08-19T11:31:18.103Z,38.57
2022-08-19T11:33:47.648Z,37.66
2022-08-19T11:36:17.089Z,37.23
2022-08-19T11:38:45.684Z,36.93
2022-08-19T11:41:13.805Z,37.56
2022-08-19T11:43:46.356Z,38.23
2022-08-19T11:46:16.110Z,38.64
2022-08-19T11:48:47.209Z,38.50
2022-08-19T11:51:19.435Z,37.99
2022-08-19T11:53:48.069Z,37.86
2022-08-19T11:56:16.122Z,37.79
2022-08-19T11:58:48.694Z,37.18
2022-08-19T12:01:19.421Z,37.14
2022-08-19T12:03:48.935Z,36.29
2022-08-19T12:06:22.077Z,35.76
2022-08-19T12:08:50.201Z,35.56
2022-08-19T12:11:18.342Z,35.07
2022-08-19T12:13:48.796Z,34.95
2022-08-19T12:16:20.073Z,34.91
2022-08-19T12:18:49.157Z,34.72
2022-08-19T12:21:17.550Z,34.49
2022-08-19T12:23:47.506Z,34.67
2022-08-19T12:26:15.528Z,34.31
2022-08-19T12:28:43.726Z,34.09
2022-08-19T12:31:35.171Z,33.51
2022-08-19T12:34:03.666Z,33.52
2022-08-19T12:36:31.927Z,33.37
2022-08-19T12:39:01.842Z,33.26
2022-08-19T12:41:30.412Z,33.33
2022-08-19T12:43:59.256Z,33.37
2022-08-19T12:46:27.136Z,33.46
2022-08-19T12:48:56.799Z,33.36
2022-08-19T12:51:32.908Z,33.40
2022-08-19T12:54:08.337Z,33.35
2022-08-19T12:56:38.163Z,33.58
2022-08-19T12:59:09.144Z,33.84
2022-08-19T13:01:39.565Z,33.76
2022-08-19T13:04:09.954Z,33.30
2022-08-19T13:06:38.156Z,33.26
2022-08-19T13:09:06.943Z,33.01
2022-08-19T13:11:35.433Z,32.99
2022-08-19T13:14:05.073Z,32.91
2022-08-19T13:16:33.946Z,33.06
2022-08-19T13:19:06.557Z,32.94
2022-08-19T13:21:45.911Z,33.03
2022-08-19T13:24:14.409Z,32.98
2022-08-19T13:26:46.150Z,33.35
2022-08-19T13:29:31.813Z,33.01
2022-08-19T13:32:18.661Z,33.34
2022-08-19T13:34:49.780Z,33.29
2022-08-19T13:37:39.081Z,33.18
2022-08-19T13:40:08.706Z,33.21
2022-08-19T13:42:36.661Z,33.26
2022-08-19T13:45:05.925Z,32.89
2022-08-19T13:47:35.496Z,33.06
2022-08-19T13:50:05.177Z,33.02
2022-08-19T13:52:37.312Z,33.43
2022-08-19T13:55:06.488Z,34.49
2022-08-19T13:57:35.822Z,35.83
2022-08-19T14:00:18.503Z,35.72
2022-08-19T14:02:47.647Z,34.78
2022-08-19T14:05:18.517Z,33.51
2022-08-19T14:07:49.104Z,33.24
2022-08-19T14:10:18.144Z,33.41
2022-08-19T14:12:47.042Z,34.60
2022-08-19T14:15:16.623Z,35.86
2022-08-19T14:17:50.319Z,37.01
2022-08-19T14:20:18.920Z,37.62
2022-08-19T14:22:54.012Z,38.03
2022-08-19T14:25:24.548Z,38.09
2022-08-19T14:27:53.399Z,37.70
2022-08-19T14:30:26.548Z,36.93
2022-08-19T14:32:55.127Z,36.36
2022-08-19T14:35:24.032Z,36.22
2022-08-19T14:37:56.744Z,36.96
2022-08-19T14:40:27.676Z,37.34
2022-08-19T14:43:00.313Z,37.14
2022-08-19T14:45:38.984Z,36.63
2022-08-19T14:48:12.554Z,36.77
2022-08-19T14:50:47.708Z,36.17
2022-08-19T14:53:18.405Z,36.66
2022-08-19T14:55:48.156Z,37.33
2022-08-19T14:58:29.086Z,37.93
2022-08-19T15:01:04.559Z,37.67
2022-08-19T15:03:38.544Z,37.72
2022-08-19T15:06:07.793Z,37.47
2022-08-19T15:08:42.047Z,36.97
2022-08-19T15:11:12.119Z,36.87
2022-08-19T15:13:41.167Z,36.99
2022-08-19T15:16:25.692Z,37.03
2022-08-19T15:19:01.926Z,37.63
2022-08-19T15:21:31.836Z,37.76
2022-08-19T15:24:14.495Z,38.05
2022-08-19T15:26:43.818Z,37.96
2022-08-19T15:29:13.988Z,37.38
2022-08-19T15:31:42.550Z,36.49
2022-08-19T15:34:10.834Z,35.36
2022-08-19T15:36:40.954Z,34.36
2022-08-19T15:39:13.057Z,33.20
2022-08-19T15:41:41.196Z,32.52
2022-08-19T15:44:12.472Z,32.77
2022-08-19T15:46:43.793Z,33.70
2022-08-19T15:49:14.326Z,33.83
2022-08-19T15:51:44.094Z,34.33
2022-08-19T15:54:16.538Z,34.33
2022-08-19T15:57:07.777Z,34.30
2022-08-19T15:59:55.039Z,33.98
2022-08-19T16:02:44.329Z,33.02
2022-08-19T16:05:34.618Z,32.38
2022-08-19T16:08:02.771Z,32.04
2022-08-19T16:10:32.473Z,31.87
2022-08-19T16:13:00.759Z,31.83
2022-08-19T16:15:31.520Z,31.37
2022-08-19T16:18:02.451Z,31.00
2022-08-19T16:20:33.193Z,30.70
2022-08-19T16:23:06.552Z,30.27
2022-08-19T16:25:36.528Z,29.75
2022-08-19T16:28:06.339Z,29.59
2022-08-19T16:30:38.605Z,29.08
2022-08-19T16:33:07.316Z,29.10
2022-08-19T16:35:35.647Z,29.14
2022-08-19T16:38:04.020Z,28.87
2022-08-19T16:40:32.322Z,28.75
2022-08-19T16:43:02.494Z,28.50
2022-08-19T16:45:31.799Z,28.34
2022-08-19T16:48:00.160Z,28.05
2022-08-19T16:50:46.226Z,27.80
2022-08-19T16:53:32.117Z,27.10
2022-08-19T16:56:01.748Z,26.69
2022-08-19T16:58:34.275Z,26.51
2022-08-19T17:01:04.975Z,26.45
2022-08-19T17:03:36.467Z,26.27
2022-08-19T17:06:18.359Z,26.20
2022-08-19T17:08:49.406Z,26.20
2022-08-19T17:11:18.874Z,26.11
2022-08-19T17:13:52.386Z,26.23
2022-08-19T17:16:24.860Z,26.32
2022-08-19T17:18:57.079Z,26.08
2022-08-19T17:21:33.990Z,25.95
2022-08-19T17:24:05.167Z,26.11
2022-08-19T17:26:33.411Z,25.89
2022-08-19T17:29:03.113Z,26.12
2022-08-19T17:31:32.585Z,26.06
2022-08-19T17:34:01.233Z,26.01
2022-08-19T17:36:35.954Z,25.93
2022-08-19T17:39:05.274Z,25.91
2022-08-19T17:41:34.927Z,25.84
2022-08-19T17:44:05.742Z,25.83
2022-08-19T17:46:34.006Z,25.78
2022-08-19T17:49:02.194Z,25.55
2022-08-19T17:51:42.494Z,25.45
2022-08-19T17:54:12.659Z,25.45
2022-08-19T17:56:41.814Z,25.50
2022-08-19T17:59:14.302Z,25.41
2022-08-19T18:01:53.259Z,25.24
2022-08-19T18:04:24.979Z,25.04
2022-08-19T18:06:54.963Z,25.20
2022-08-19T18:09:38.629Z,25.22
2022-08-19T18:12:11.491Z,25.19
2022-08-19T18:14:43.025Z,24.88
2022-08-19T18:17:14.025Z,24.67
2022-08-19T18:19:44.156Z,24.87
2022-08-19T18:22:13.761Z,24.50
2022-08-19T18:24:46.030Z,24.71
2022-08-19T18:27:14.553Z,24.68
2022-08-19T18:29:43.981Z,24.59
2022-08-19T18:32:13.800Z,24.33
2022-08-19T18:34:43.076Z,24.39
2022-08-19T18:37:11.682Z,24.45
2022-08-19T18:39:58.072Z,24.45
2022-08-19T18:42:44.099Z,24.30
2022-08-19T18:45:31.428Z,24.26
2022-08-19T18:48:26.334Z,24.15
2022-08-19T18:50:55.313Z,24.07
2022-08-19T18:53:23.321Z,24.02
2022-08-19T18:55:53.983Z,24.03
2022-08-19T18:58:26.183Z,23.96
2022-08-19T19:00:57.552Z,23.87
2022-08-19T19:03:26.401Z,23.76
2022-08-19T19:05:54.722Z,23.71
2022-08-19T19:08:27.125Z,23.78
2022-08-19T19:10:56.309Z,23.71
2022-08-19T19:13:24.373Z,23.61
2022-08-19T19:15:52.461Z,23.60
2022-08-19T19:18:22.097Z,23.57
2022-08-19T19:20:50.051Z,23.36
2022-08-19T19:23:18.001Z,23.50
2022-08-19T19:25:50.196Z,23.50
2022-08-19T19:28:25.383Z,23.37
2022-08-19T19:30:54.400Z,23.45
2022-08-19T19:33:23.695Z,23.39
2022-08-19T19:35:51.572Z,23.21
2022-08-19T19:38:19.903Z,23.24
2022-08-19T19:40:47.965Z,23.27
2022-08-19T19:43:18.441Z,23.20
2022-08-19T19:45:48.436Z,23.08
2022-08-19T19:48:16.898Z,23.14
2022-08-19T19:50:46.702Z,22.91
2022-08-19T19:53:24.270Z,23.04
2022-08-19T19:55:57.938Z,23.08
2022-08-19T19:58:28.818Z,23.08
2022-08-19T20:00:58.189Z,23.03
2022-08-19T20:03:26.593Z,22.96
2022-08-19T20:05:59.187Z,22.93
2022-08-19T20:08:44.719Z,23.02
2022-08-19T20:11:13.019Z,23.03
2022-08-19T20:13:41.424Z,23.03
2022-08-19T20:16:09.538Z,22.97
2022-08-19T20:18:40.258Z,22.89
2022-08-19T20:21:09.518Z,22.84
2022-08-19T20:23:39.584Z,22.88
2022-08-19T20:26:08.504Z,22.72
2022-08-19T20:28:50.661Z,22.79
2022-08-19T20:31:27.017Z,22.79
2022-08-19T20:33:58.163Z,22.75
2022-08-19T20:36:27.628Z,22.63
2022-08-19T20:38:55.573Z,22.56
2022-08-19T20:41:23.775Z,22.58
2022-08-19T20:43:52.655Z,22.52
2022-08-19T20:46:20.510Z,22.58
2022-08-19T20:48:48.771Z,22.54
2022-08-19T20:51:18.227Z,22.49
2022-08-19T20:53:47.617Z,22.51
2022-08-19T20:56:19.253Z,22.50
2022-08-19T20:58:51.839Z,22.47
2022-08-19T21:01:22.608Z,22.34
2022-08-19T21:03:51.784Z,22.43
2022-08-19T21:06:20.434Z,22.43
2022-08-19T21:08:54.670Z,22.37
2022-08-19T21:11:22.827Z,22.32
2022-08-19T21:13:50.821Z,22.30
2022-08-19T21:16:18.932Z,22.20
2022-08-19T21:18:52.410Z,22.12
2022-08-19T21:21:20.647Z,21.84
2022-08-19T21:23:49.689Z,22.13
2022-08-19T21:26:21.106Z,22.09
2022-08-19T21:28:49.302Z,21.89
2022-08-19T21:31:18.008Z,21.98
2022-08-19T21:33:46.527Z,21.92
2022-08-19T21:36:14.502Z,22.00
2022-08-19T21:38:42.516Z,21.94
2022-08-19T21:41:10.918Z,21.94
2022-08-19T21:43:40.687Z,21.86
2022-08-19T21:46:09.075Z,21.95
2022-08-19T21:48:37.743Z,21.98
2022-08-19T21:51:05.957Z,21.76
2022-08-19T21:53:34.834Z,21.91
2022-08-19T21:56:03.143Z,21.95
2022-08-19T21:58:31.483Z,21.78
2022-08-19T22:01:06.118Z,21.76
2022-08-19T22:03:34.474Z,21.83
2022-08-19T22:06:02.810Z,21.85
2022-08-19T22:08:31.613Z,21.89
2022-08-19T22:11:00.358Z,21.65
2022-08-19T22:13:29.325Z,21.89
2022-08-19T22:15:57.860Z,21.72
2022-08-19T22:18:28.203Z,21.88
2022-08-19T22:20:56.804Z,21.91
2022-08-19T22:23:24.844Z,21.79
2022-08-19T22:25:52.762Z,21.79
2022-08-19T22:28:27.881Z,22.01
2022-08-19T22:31:31.629Z,21.87
2022-08-19T22:34:01.889Z,22.14
2022-08-19T22:36:31.821Z,22.15
2022-08-19T22:39:24.496Z,22.26
2022-08-19T22:51:40.780Z,22.26
2022-08-19T22:54:11.394Z,22.12
2022-08-19T22:56:39.413Z,22.26
2022-08-19T22:59:08.624Z,22.29
2022-08-19T23:01:37.302Z,22.43
2022-08-19T23:04:05.857Z,22.58
2022-08-19T23:06:39.116Z,22.58
2022-08-19T23:09:10.356Z,22.45
2022-08-19T23:11:42.128Z,22.59
2022-08-19T23:14:11.658Z,22.67
2022-08-19T23:16:41.712Z,22.66
2022-08-19T23:19:10.068Z,22.47
2022-08-19T23:21:39.825Z,22.17
2022-08-19T23:24:08.280Z,22.50
2022-08-19T23:26:36.336Z,22.49
2022-08-19T23:29:23.434Z,22.27
2022-08-19T23:31:51.846Z,22.20
2022-08-19T23:34:19.950Z,22.09
2022-08-19T23:36:50.512Z,22.08
2022-08-19T23:39:19.267Z,22.03
2022-08-19T23:41:47.389Z,21.92
2022-08-19T23:44:15.805Z,21.76
2022-08-19T23:46:55.258Z,21.79
2022-08-19T23:49:26.498Z,21.92
2022-08-19T23:51:56.583Z,21.93
2022-08-19T23:54:27.477Z,21.85
2022-08-19T23:57:14.400Z,21.70
2022-08-19T23:59:45.706Z,21.83
